createdAt,value
2023-11-05T00:00:21.295Z,34.45
2023-11-05T00:01:21.432Z,34.45
2023-11-05T00:02:21.303Z,33.32
2023-11-05T00:03:21.359Z,33.32
2023-11-05T00:04:21.360Z,34.51
2023-11-05T00:05:21.316Z,34.45
2023-11-05T00:06:21.283Z,34.51
2023-11-05T00:07:21.309Z,34.51
2023-11-05T00:08:21.264Z,34.51
2023-11-05T00:09:21.196Z,34.40
2023-11-05T00:10:21.367Z,35.64
2023-11-05T00:11:21.184Z,33.26
2023-11-05T00:12:21.210Z,34.45
2023-11-05T00:13:21.163Z,34.51
2023-11-05T00:14:21.120Z,34.40
2023-11-05T00:15:21.090Z,34.45
2023-11-05T00:16:21.165Z,34.51
2023-11-05T00:17:21.077Z,33.64
2023-11-05T00:18:21.125Z,33.32
2023-11-05T00:19:21.275Z,34.51
2023-11-05T00:20:21.030Z,34.45
2023-11-05T00:21:21.017Z,34.45
2023-11-05T00:22:21.079Z,34.40
2023-11-05T00:23:20.984Z,34.40
2023-11-05T00:24:20.991Z,34.45
2023-11-05T00:25:21.012Z,34.45
2023-11-05T00:26:20.957Z,34.51
2023-11-05T00:27:20.939Z,33.26
2023-11-05T00:28:20.940Z,33.48
2023-11-05T00:29:20.925Z,34.51
2023-11-05T00:30:20.922Z,33.26
2023-11-05T00:31:20.919Z,33.26
2023-11-05T00:32:20.885Z,34.45
2023-11-05T00:33:20.961Z,34.45
2023-11-05T00:34:20.918Z,34.51
2023-11-05T00:35:20.852Z,33.26
2023-11-05T00:36:20.828Z,33.21
2023-11-05T00:37:20.827Z,34.45
2023-11-05T00:38:20.825Z,33.32
2023-11-05T00:39:20.815Z,34.51
2023-11-05T00:40:20.772Z,34.45
2023-11-05T00:41:20.749Z,34.45
2023-11-05T00:42:20.739Z,35.69
2023-11-05T00:43:20.745Z,34.45
2023-11-05T00:44:20.704Z,34.45
2023-11-05T00:45:20.691Z,33.32
2023-11-05T00:46:20.720Z,34.45
2023-11-05T00:47:20.675Z,33.26
2023-11-05T00:48:20.686Z,34.40
2023-11-05T00:49:20.699Z,33.21
2023-11-05T00:50:20.640Z,33.26
2023-11-05T00:51:20.628Z,34.45
2023-11-05T00:52:20.659Z,34.51
2023-11-05T00:53:20.626Z,34.40
2023-11-05T00:54:20.641Z,33.32
2023-11-05T00:55:20.573Z,34.51
2023-11-05T00:56:20.558Z,34.51
2023-11-05T00:57:20.531Z,34.51
2023-11-05T00:58:20.548Z,34.40
2023-11-05T00:59:20.511Z,34.45
2023-11-05T01:00:25.865Z,33.32
2023-11-05T01:01:21.529Z,33.32
2023-11-05T01:02:20.474Z,33.26
2023-11-05T01:03:20.535Z,33.21
2023-11-05T01:04:20.629Z,34.51
2023-11-05T01:05:20.570Z,34.45
2023-11-05T01:06:20.418Z,34.45
2023-11-05T01:07:20.481Z,34.51
2023-11-05T01:08:20.386Z,33.32
2023-11-05T01:09:20.372Z,34.56
2023-11-05T01:10:20.385Z,33.26
2023-11-05T01:11:20.364Z,35.64
2023-11-05T01:12:20.332Z,35.59
2023-11-05T01:13:20.393Z,34.51
2023-11-05T01:14:20.332Z,33.26
2023-11-05T01:15:20.305Z,33.21
2023-11-05T01:16:20.316Z,34.61
2023-11-05T01:17:22.721Z,34.51
2023-11-05T01:18:20.275Z,34.40
2023-11-05T01:19:20.277Z,34.45
2023-11-05T01:20:20.314Z,35.69
2023-11-05T01:21:20.218Z,34.45
2023-11-05T01:22:20.260Z,35.86
2023-11-05T01:23:20.193Z,34.51
2023-11-05T01:24:20.176Z,33.26
2023-11-05T01:25:20.205Z,34.45
2023-11-05T01:26:20.195Z,34.45
2023-11-05T01:27:20.217Z,35.64
2023-11-05T01:28:20.150Z,34.45
2023-11-05T01:29:20.110Z,34.45
2023-11-05T01:30:20.092Z,33.32
2023-11-05T01:31:20.132Z,34.45
2023-11-05T01:32:20.072Z,33.26
2023-11-05T01:33:20.189Z,34.45
2023-11-05T01:34:20.112Z,33.32
2023-11-05T01:35:20.032Z,34.45
2023-11-05T01:36:20.029Z,33.26
2023-11-05T01:37:20.029Z,33.21
2023-11-05T01:38:19.992Z,34.45
2023-11-05T01:39:19.971Z,34.45
2023-11-05T01:40:20.013Z,34.45
2023-11-05T01:41:20.032Z,34.51
2023-11-05T01:42:19.965Z,34.40
2023-11-05T01:43:19.944Z,34.45
2023-11-05T01:44:19.910Z,34.45
2023-11-05T01:45:19.903Z,34.51
2023-11-05T01:46:19.922Z,33.32
2023-11-05T01:47:19.873Z,34.34
2023-11-05T01:48:19.908Z,33.26
2023-11-05T01:49:19.863Z,33.26
2023-11-05T01:50:19.822Z,34.40
2023-11-05T01:51:19.815Z,34.45
2023-11-05T01:52:19.878Z,34.40
2023-11-05T01:53:19.794Z,33.26
2023-11-05T01:54:19.776Z,34.45
2023-11-05T01:55:19.804Z,34.51
2023-11-05T01:56:19.750Z,33.32
2023-11-05T01:57:19.736Z,34.51
2023-11-05T01:58:19.765Z,33.32
2023-11-05T01:59:19.723Z,34.40
2023-11-05T02:00:19.688Z,34.51
2023-11-05T02:01:19.724Z,34.45
2023-11-05T02:02:19.670Z,33.32
2023-11-05T02:03:19.672Z,34.56
2023-11-05T02:04:19.847Z,34.45
2023-11-05T02:05:19.799Z,34.45
2023-11-05T02:06:19.617Z,34.45
2023-11-05T02:07:19.665Z,34.56
2023-11-05T02:08:19.591Z,34.40
2023-11-05T02:09:19.569Z,34.51
2023-11-05T02:10:19.615Z,34.45
2023-11-05T02:11:19.543Z,34.45
2023-11-05T02:12:19.536Z,34.51
2023-11-05T02:13:19.540Z,34.40
2023-11-05T02:14:19.525Z,35.64
2023-11-05T02:15:19.506Z,34.45
2023-11-05T02:16:19.489Z,33.32
2023-11-05T02:17:19.466Z,34.45
2023-11-05T02:18:19.529Z,34.45
2023-11-05T02:19:19.508Z,34.45
2023-11-05T02:20:19.452Z,34.40
2023-11-05T02:21:19.405Z,35.64
2023-11-05T02:22:19.419Z,34.45
2023-11-05T02:23:19.399Z,34.45
2023-11-05T02:24:19.373Z,34.40
2023-11-05T02:25:19.401Z,34.45
2023-11-05T02:26:19.351Z,34.40
2023-11-05T02:27:19.334Z,34.45
2023-11-05T02:28:19.335Z,34.51
2023-11-05T02:29:19.309Z,34.51
2023-11-05T02:30:19.375Z,34.45
2023-11-05T02:31:19.282Z,34.45
2023-11-05T02:32:19.272Z,33.26
2023-11-05T02:33:19.254Z,34.51
2023-11-05T02:34:19.297Z,34.51
2023-11-05T02:35:19.335Z,33.32
2023-11-05T02:36:19.209Z,33.26
2023-11-05T02:37:19.326Z,33.32
2023-11-05T02:38:19.177Z,34.45
2023-11-05T02:39:19.187Z,34.45
2023-11-05T02:40:19.180Z,34.51
2023-11-05T02:41:19.133Z,34.51
2023-11-05T02:42:19.130Z,34.45
2023-11-05T02:43:19.156Z,34.51
2023-11-05T02:44:19.101Z,34.56
2023-11-05T02:45:19.094Z,34.40
2023-11-05T02:46:19.115Z,33.32
2023-11-05T02:47:19.114Z,33.32
2023-11-05T02:48:19.075Z,34.51
2023-11-05T02:49:19.050Z,34.45
2023-11-05T02:50:19.025Z,33.21
2023-11-05T02:51:19.002Z,35.75
2023-11-05T02:52:19.015Z,34.40
2023-11-05T02:53:19.003Z,34.45
2023-11-05T02:54:18.970Z,34.99
2023-11-05T02:55:18.970Z,33.37
2023-11-05T02:56:18.954Z,34.51
2023-11-05T02:57:18.922Z,34.56
2023-11-05T02:58:18.960Z,34.45
2023-11-05T02:59:18.913Z,34.45
2023-11-05T03:00:18.950Z,33.26
2023-11-05T03:01:18.905Z,33.26
2023-11-05T03:02:18.902Z,34.45
2023-11-05T03:03:19.003Z,34.40
2023-11-05T03:04:18.868Z,34.45
2023-11-05T03:05:18.863Z,34.45
2023-11-05T03:06:18.804Z,34.51
2023-11-05T03:07:18.807Z,34.51
2023-11-05T03:08:18.774Z,34.45
2023-11-05T03:09:18.768Z,34.45
2023-11-05T03:10:18.779Z,34.45
2023-11-05T03:11:18.755Z,33.26
2023-11-05T03:12:18.734Z,33.32
2023-11-05T03:13:18.743Z,34.45
2023-11-05T03:14:18.700Z,34.45
2023-11-05T03:15:18.691Z,34.45
2023-11-05T03:16:18.693Z,34.45
2023-11-05T03:17:18.739Z,34.51
2023-11-05T03:18:18.771Z,33.32
2023-11-05T03:19:18.627Z,33.32
2023-11-05T03:20:18.621Z,34.51
2023-11-05T03:21:18.603Z,34.40
2023-11-05T03:22:18.604Z,34.40
2023-11-05T03:23:18.580Z,34.45
2023-11-05T03:24:18.562Z,34.40
2023-11-05T03:25:18.595Z,34.51
2023-11-05T03:26:18.532Z,35.69
2023-11-05T03:27:18.513Z,34.40
2023-11-05T03:28:18.548Z,34.45
2023-11-05T03:29:18.497Z,33.26
2023-11-05T03:30:18.496Z,34.45
2023-11-05T03:31:18.509Z,33.32
2023-11-05T03:32:18.458Z,34.45
2023-11-05T03:33:18.594Z,33.32
2023-11-05T03:34:18.462Z,33.26
2023-11-05T03:35:18.411Z,33.32
2023-11-05T03:36:18.409Z,34.45
2023-11-05T03:37:18.399Z,34.45
2023-11-05T03:38:18.369Z,34.45
2023-11-05T03:39:18.349Z,33.32
2023-11-05T03:40:18.362Z,33.37
2023-11-05T03:41:18.328Z,34.45
2023-11-05T03:42:18.335Z,34.51
2023-11-05T03:43:18.308Z,33.26
2023-11-05T03:44:18.299Z,33.37
2023-11-05T03:45:18.276Z,33.37
2023-11-05T03:46:18.277Z,34.45
2023-11-05T03:47:18.259Z,33.21
2023-11-05T03:48:18.258Z,34.40
2023-11-05T03:49:18.236Z,33.32
2023-11-05T03:50:18.229Z,34.40
2023-11-05T03:51:18.195Z,33.32
2023-11-05T03:52:18.196Z,34.45
2023-11-05T03:53:18.170Z,34.40
2023-11-05T03:54:18.148Z,34.45
2023-11-05T03:55:18.189Z,33.32
2023-11-05T03:56:18.319Z,33.26
2023-11-05T03:57:18.106Z,33.21
2023-11-05T03:58:18.122Z,33.26
2023-11-05T03:59:18.076Z,33.26
2023-11-05T04:00:18.133Z,33.43
2023-11-05T04:01:18.084Z,33.32
2023-11-05T04:02:18.047Z,34.45
2023-11-05T04:03:18.102Z,33.32
2023-11-05T04:04:18.048Z,33.26
2023-11-05T04:05:18.055Z,34.51
2023-11-05T04:06:18.082Z,34.51
2023-11-05T04:07:18.025Z,34.45
2023-11-05T04:08:17.966Z,33.32
2023-11-05T04:09:17.954Z,33.32
2023-11-05T04:10:17.961Z,34.45
2023-11-05T04:11:17.915Z,34.45
2023-11-05T04:12:17.905Z,34.40
2023-11-05T04:13:17.931Z,34.56
2023-11-05T04:14:17.891Z,33.37
2023-11-05T04:15:17.868Z,34.45
2023-11-05T04:16:17.855Z,33.37
2023-11-05T04:17:17.842Z,34.45
2023-11-05T04:18:17.839Z,34.34
2023-11-05T04:19:17.803Z,33.32
2023-11-05T04:20:17.806Z,34.56
2023-11-05T04:21:17.789Z,34.45
2023-11-05T04:22:17.842Z,34.40
2023-11-05T04:23:17.759Z,34.45
2023-11-05T04:24:17.751Z,34.45
2023-11-05T04:25:17.770Z,34.56
2023-11-05T04:26:17.723Z,33.37
2023-11-05T04:27:17.702Z,34.45
2023-11-05T04:28:17.720Z,34.45
2023-11-05T04:29:17.680Z,32.29
2023-11-05T04:30:17.673Z,33.32
2023-11-05T04:31:17.699Z,33.26
2023-11-05T04:32:17.640Z,34.51
2023-11-05T04:33:17.692Z,33.32
2023-11-05T04:34:17.637Z,34.51
2023-11-05T04:35:17.662Z,34.40
2023-11-05T04:36:17.597Z,34.40
2023-11-05T04:37:17.574Z,33.32
2023-11-05T04:38:17.574Z,34.40
2023-11-05T04:39:17.533Z,33.37
2023-11-05T04:40:17.565Z,33.26
2023-11-05T04:41:17.511Z,34.45
2023-11-05T04:42:17.498Z,34.51
2023-11-05T04:43:17.508Z,34.51
2023-11-05T04:44:17.472Z,33.32
2023-11-05T04:45:17.475Z,33.32
2023-11-05T04:46:17.496Z,33.37
2023-11-05T04:47:17.432Z,34.40
2023-11-05T04:48:17.532Z,34.45
2023-11-05T04:49:17.440Z,34.51
2023-11-05T04:50:17.402Z,34.51
2023-11-05T04:51:17.377Z,34.45
2023-11-05T04:52:17.393Z,33.32
2023-11-05T04:53:17.359Z,34.45
2023-11-05T04:54:17.366Z,34.56
2023-11-05T04:55:17.348Z,33.26
2023-11-05T04:56:17.329Z,33.32
2023-11-05T04:57:17.296Z,34.45
2023-11-05T04:58:17.302Z,33.32
2023-11-05T04:59:17.269Z,33.26
2023-11-05T05:00:17.267Z,33.26
2023-11-05T05:01:17.259Z,34.51
2023-11-05T05:02:17.245Z,34.45
2023-11-05T05:03:17.297Z,33.26
2023-11-05T05:04:17.278Z,33.32
2023-11-05T05:05:17.282Z,33.32
2023-11-05T05:06:17.171Z,33.32
2023-11-05T05:07:17.196Z,34.45
2023-11-05T05:08:17.166Z,33.21
2023-11-05T05:09:17.132Z,35.64
2023-11-05T05:10:17.207Z,33.32
2023-11-05T05:11:17.119Z,33.26
2023-11-05T05:12:17.090Z,34.51
2023-11-05T05:13:17.188Z,34.56
2023-11-05T05:14:17.082Z,34.45
2023-11-05T05:15:17.086Z,33.26
2023-11-05T05:16:17.076Z,33.21
2023-11-05T05:17:17.029Z,34.45
2023-11-05T05:18:17.092Z,34.51
2023-11-05T05:19:17.024Z,34.45
2023-11-05T05:20:16.980Z,33.32
2023-11-05T05:21:16.973Z,34.40
2023-11-05T05:22:17.007Z,33.32
2023-11-05T05:23:16.946Z,33.32
2023-11-05T05:24:16.933Z,34.45
2023-11-05T05:25:16.947Z,33.26
2023-11-05T05:26:19.757Z,33.21
2023-11-05T05:27:16.897Z,33.26
2023-11-05T05:28:16.916Z,33.26
2023-11-05T05:29:16.862Z,33.26
2023-11-05T05:30:16.864Z,34.51
2023-11-05T05:31:16.941Z,33.26
2023-11-05T05:32:16.822Z,34.40
2023-11-05T05:33:16.918Z,34.40
2023-11-05T05:34:16.816Z,33.26
2023-11-05T05:35:16.788Z,34.45
2023-11-05T05:36:16.772Z,33.32
2023-11-05T05:37:16.772Z,34.40
2023-11-05T05:38:16.739Z,33.32
2023-11-05T05:39:16.734Z,33.32
2023-11-05T05:40:16.748Z,34.51
2023-11-05T05:41:16.702Z,34.45
2023-11-05T05:42:16.710Z,33.26
2023-11-05T05:43:16.718Z,33.26
2023-11-05T05:44:16.660Z,34.51
2023-11-05T05:45:16.663Z,34.45
2023-11-05T05:46:16.704Z,34.45
2023-11-05T05:47:16.613Z,34.56
2023-11-05T05:48:16.666Z,33.26
2023-11-05T05:49:16.718Z,34.45
2023-11-05T05:50:16.580Z,33.37
2023-11-05T05:51:16.564Z,33.26
2023-11-05T05:52:16.585Z,34.51
2023-11-05T05:53:16.532Z,33.32
2023-11-05T05:54:16.524Z,34.45
2023-11-05T05:55:16.765Z,33.26
2023-11-05T05:56:16.505Z,33.32
2023-11-05T05:57:16.486Z,34.45
2023-11-05T05:58:16.518Z,34.45
2023-11-05T05:59:16.460Z,34.45
2023-11-05T06:00:16.450Z,33.21
2023-11-05T06:01:16.488Z,33.26
2023-11-05T06:02:16.487Z,33.26
2023-11-05T06:03:16.403Z,34.45
2023-11-05T06:04:16.411Z,34.51
2023-11-05T06:05:16.530Z,33.21
2023-11-05T06:06:16.369Z,33.26
2023-11-05T06:07:16.353Z,34.51
2023-11-05T06:08:16.338Z,33.43
2023-11-05T06:09:16.312Z,34.40
2023-11-05T06:10:16.350Z,34.45
2023-11-05T06:11:16.301Z,33.32
2023-11-05T06:12:16.276Z,33.32
2023-11-05T06:13:16.308Z,34.45
2023-11-05T06:14:16.273Z,33.26
2023-11-05T06:15:16.236Z,33.26
2023-11-05T06:16:16.229Z,34.45
2023-11-05T06:17:16.215Z,33.26
2023-11-05T06:18:16.268Z,33.26
2023-11-05T06:19:16.206Z,33.26
2023-11-05T06:20:16.173Z,34.45
2023-11-05T06:21:16.170Z,33.32
2023-11-05T06:22:16.162Z,33.26
2023-11-05T06:23:16.133Z,34.45
2023-11-05T06:24:16.118Z,33.32
2023-11-05T06:25:16.131Z,33.32
2023-11-05T06:26:16.087Z,33.21
2023-11-05T06:27:16.081Z,34.45
2023-11-05T06:28:16.089Z,33.16
2023-11-05T06:29:16.068Z,34.51
2023-11-05T06:30:16.097Z,33.32
2023-11-05T06:31:16.050Z,33.37
2023-11-05T06:32:16.008Z,34.51
2023-11-05T06:33:16.063Z,34.45
2023-11-05T06:34:16.021Z,33.37
2023-11-05T06:35:15.968Z,34.45
2023-11-05T06:36:15.965Z,34.45
2023-11-05T06:37:15.967Z,33.26
2023-11-05T06:38:15.928Z,33.26
2023-11-05T06:39:15.917Z,34.45
2023-11-05T06:40:15.915Z,34.45
2023-11-05T06:41:15.882Z,34.45
2023-11-05T06:42:15.888Z,34.40
2023-11-05T06:43:15.878Z,33.26
2023-11-05T06:44:15.847Z,34.45
2023-11-05T06:45:15.834Z,34.40
2023-11-05T06:46:15.890Z,33.21
2023-11-05T06:47:15.799Z,33.26
2023-11-05T06:48:15.859Z,33.21
2023-11-05T06:49:15.794Z,34.45
2023-11-05T06:50:15.760Z,33.32
2023-11-05T06:51:15.747Z,32.29
2023-11-05T06:52:15.750Z,34.45
2023-11-05T06:53:15.726Z,34.56
2023-11-05T06:54:15.728Z,33.21
2023-11-05T06:55:15.720Z,33.32
2023-11-05T06:56:15.685Z,34.45
2023-11-05T06:57:15.676Z,33.32
2023-11-05T06:58:15.688Z,33.37
2023-11-05T06:59:15.645Z,33.32
2023-11-05T07:00:15.629Z,34.51
2023-11-05T07:01:15.648Z,34.40
2023-11-05T07:02:15.631Z,33.21
2023-11-05T07:03:15.724Z,34.51
2023-11-05T07:04:15.634Z,34.56
2023-11-05T07:05:15.717Z,34.45
2023-11-05T07:06:15.555Z,33.26
2023-11-05T07:07:15.550Z,33.32
2023-11-05T07:08:15.512Z,33.75
2023-11-05T07:09:15.508Z,34.45
2023-11-05T07:10:15.527Z,34.45
2023-11-05T07:11:15.480Z,33.32
2023-11-05T07:12:15.466Z,35.69
2023-11-05T07:13:15.480Z,34.45
2023-11-05T07:14:15.434Z,33.32
2023-11-05T07:15:15.437Z,34.40
2023-11-05T07:16:15.447Z,33.26
2023-11-05T07:17:15.390Z,33.32
2023-11-05T07:18:15.473Z,32.18
2023-11-05T07:19:15.459Z,33.26
2023-11-05T07:20:15.385Z,33.26
2023-11-05T07:21:15.345Z,34.40
2023-11-05T07:22:15.394Z,34.51
2023-11-05T07:23:15.306Z,34.51
2023-11-05T07:24:15.302Z,34.45
2023-11-05T07:25:15.313Z,33.32
2023-11-05T07:26:15.290Z,34.29
2023-11-05T07:27:15.262Z,34.45
2023-11-05T07:28:15.284Z,34.45
2023-11-05T07:29:15.787Z,33.26
2023-11-05T07:30:15.220Z,34.45
2023-11-05T07:31:15.238Z,33.32
2023-11-05T07:32:15.185Z,34.51
2023-11-05T07:33:15.237Z,33.21
2023-11-05T07:34:15.209Z,33.43
2023-11-05T07:35:15.144Z,33.16
2023-11-05T07:36:15.132Z,33.26
2023-11-05T07:37:15.169Z,33.37
2023-11-05T07:38:15.103Z,33.26
2023-11-05T07:39:15.089Z,34.45
2023-11-05T07:40:15.111Z,34.45
2023-11-05T07:41:15.062Z,34.40
2023-11-05T07:42:15.054Z,34.56
2023-11-05T07:43:15.043Z,34.45
2023-11-05T07:44:15.020Z,33.26
2023-11-05T07:45:15.013Z,34.45
2023-11-05T07:46:15.089Z,34.34
2023-11-05T07:47:14.989Z,33.32
2023-11-05T07:48:15.078Z,33.32
2023-11-05T07:49:14.989Z,34.45
2023-11-05T07:50:14.973Z,35.75
2023-11-05T07:51:14.929Z,34.40
2023-11-05T07:52:14.940Z,35.64
2023-11-05T07:53:17.743Z,34.45
2023-11-05T07:54:14.896Z,35.64
2023-11-05T07:55:14.935Z,35.64
2023-11-05T07:56:14.883Z,35.69
2023-11-05T07:57:14.853Z,36.67
2023-11-05T07:58:14.861Z,35.64
2023-11-05T07:59:14.833Z,35.69
2023-11-05T08:00:14.814Z,36.56
2023-11-05T08:01:14.850Z,35.69
2023-11-05T08:02:14.777Z,36.67
2023-11-05T08:03:14.823Z,36.61
2023-11-05T08:04:14.766Z,34.34
2023-11-05T08:05:14.888Z,35.69
2023-11-05T08:06:14.770Z,35.64
2023-11-05T08:07:14.750Z,35.69
2023-11-05T08:08:14.714Z,35.69
2023-11-05T08:09:14.691Z,35.64
2023-11-05T08:10:14.764Z,36.61
2023-11-05T08:11:14.669Z,35.69
2023-11-05T08:12:14.650Z,35.64
2023-11-05T08:13:14.660Z,35.64
2023-11-05T08:14:14.631Z,35.69
2023-11-05T08:15:14.708Z,35.64
2023-11-05T08:16:14.615Z,35.69
2023-11-05T08:17:14.583Z,34.45
2023-11-05T08:18:14.615Z,36.61
2023-11-05T08:19:14.617Z,35.64
2023-11-05T08:20:14.586Z,35.64
2023-11-05T08:21:14.520Z,35.64
2023-11-05T08:22:14.598Z,35.69
2023-11-05T08:23:14.513Z,36.67
2023-11-05T08:24:14.498Z,35.59
2023-11-05T08:25:14.597Z,35.59
2023-11-05T08:26:14.451Z,35.64
2023-11-05T08:27:14.459Z,35.69
2023-11-05T08:28:23.328Z,35.64
2023-11-05T08:29:15.706Z,35.64
2023-11-05T08:30:14.550Z,36.61
2023-11-05T08:31:14.397Z,35.59
2023-11-05T08:32:14.376Z,35.64
2023-11-05T08:33:14.426Z,35.69
2023-11-05T08:34:14.385Z,36.61
2023-11-05T08:35:14.335Z,35.64
2023-11-05T08:36:14.313Z,36.72
2023-11-05T08:37:14.330Z,36.61
2023-11-05T08:38:14.306Z,35.64
2023-11-05T08:39:14.279Z,35.64
2023-11-05T08:40:14.296Z,35.69
2023-11-05T08:41:14.259Z,35.64
2023-11-05T08:42:14.247Z,36.61
2023-11-05T08:43:14.362Z,35.64
2023-11-05T08:44:14.211Z,35.75
2023-11-05T08:45:14.191Z,35.59
2023-11-05T08:46:14.222Z,36.67
2023-11-05T08:47:14.176Z,35.69
2023-11-05T08:48:14.161Z,35.69
2023-11-05T08:49:14.169Z,36.56
2023-11-05T08:50:14.122Z,35.64
2023-11-05T08:51:14.115Z,35.69
2023-11-05T08:52:14.164Z,36.67
2023-11-05T08:53:14.092Z,34.45
2023-11-05T08:54:14.094Z,35.64
2023-11-05T08:55:14.399Z,35.69
2023-11-05T08:56:14.041Z,34.45
2023-11-05T08:57:14.046Z,35.59
2023-11-05T08:58:14.021Z,35.64
2023-11-05T08:59:14.012Z,36.61
2023-11-05T09:00:14.111Z,35.75
2023-11-05T09:01:14.036Z,35.64
2023-11-05T09:02:13.963Z,36.61
2023-11-05T09:03:14.202Z,36.61
2023-11-05T09:04:13.975Z,35.64
2023-11-05T09:05:14.052Z,35.69
2023-11-05T09:06:13.905Z,35.69
2023-11-05T09:07:13.987Z,34.51
2023-11-05T09:08:13.881Z,35.64
2023-11-05T09:09:13.868Z,34.45
2023-11-05T09:10:14.019Z,35.69
2023-11-05T09:11:13.845Z,36.67
2023-11-05T09:12:13.832Z,35.64
2023-11-05T09:13:13.842Z,35.69
2023-11-05T09:14:13.811Z,35.69
2023-11-05T09:15:13.786Z,35.64
2023-11-05T09:16:13.845Z,36.56
2023-11-05T09:17:13.809Z,35.75
2023-11-05T09:18:13.894Z,36.67
2023-11-05T09:19:13.787Z,35.59
2023-11-05T09:20:13.726Z,35.69
2023-11-05T09:21:13.707Z,35.64
2023-11-05T09:22:13.752Z,35.64
2023-11-05T09:23:13.686Z,35.64
2023-11-05T09:24:13.670Z,37.75
2023-11-05T09:25:13.768Z,35.69
2023-11-05T09:26:13.666Z,35.64
2023-11-05T09:27:13.642Z,34.45
2023-11-05T09:28:13.609Z,35.69
2023-11-05T09:29:13.613Z,35.59
2023-11-05T09:30:14.209Z,35.64
2023-11-05T09:31:13.585Z,35.64
2023-11-05T09:32:13.581Z,36.61
2023-11-05T09:33:13.577Z,35.64
2023-11-05T09:34:13.532Z,36.72
2023-11-05T09:35:13.706Z,35.69
2023-11-05T09:36:13.503Z,35.64
2023-11-05T09:37:15.691Z,36.61
2023-11-05T09:38:13.557Z,36.61
2023-11-05T09:39:13.461Z,35.75
2023-11-05T09:40:13.444Z,35.64
2023-11-05T09:41:13.447Z,35.64
2023-11-05T09:42:13.454Z,35.64
2023-11-05T09:43:13.424Z,35.64
2023-11-05T09:44:13.394Z,36.67
2023-11-05T09:45:13.389Z,34.45
2023-11-05T09:46:13.370Z,35.64
2023-11-05T09:47:13.358Z,35.69
2023-11-05T09:48:13.516Z,35.75
2023-11-05T09:49:13.339Z,36.61
2023-11-05T09:50:13.311Z,36.61
2023-11-05T09:51:13.308Z,36.72
2023-11-05T09:52:13.288Z,35.69
2023-11-05T09:53:13.285Z,35.69
2023-11-05T09:54:13.267Z,35.64
2023-11-05T09:55:13.267Z,36.67
2023-11-05T09:56:13.241Z,35.59
2023-11-05T09:57:13.225Z,34.45
2023-11-05T09:58:13.232Z,36.61
2023-11-05T09:59:13.200Z,35.64
2023-11-05T10:00:13.181Z,36.67
2023-11-05T10:01:13.178Z,35.64
2023-11-05T10:02:13.172Z,35.64
2023-11-05T10:03:13.237Z,35.69
2023-11-05T10:04:13.130Z,35.69
2023-11-05T10:05:13.155Z,35.64
2023-11-05T10:06:13.110Z,36.61
2023-11-05T10:07:13.091Z,35.64
2023-11-05T10:08:13.137Z,36.61
2023-11-05T10:09:13.068Z,36.61
2023-11-05T10:10:13.044Z,36.61
2023-11-05T10:11:13.034Z,35.64
2023-11-05T10:12:13.042Z,35.64
2023-11-05T10:13:13.011Z,36.56
2023-11-05T10:14:13.019Z,36.61
2023-11-05T10:15:13.042Z,36.56
2023-11-05T10:16:12.966Z,35.69
2023-11-05T10:17:12.971Z,36.83
2023-11-05T10:18:12.994Z,35.59
2023-11-05T10:19:12.948Z,35.64
2023-11-05T10:20:12.919Z,36.67
2023-11-05T10:21:12.905Z,36.61
2023-11-05T10:22:12.915Z,35.59
2023-11-05T10:23:12.878Z,35.75
2023-11-05T10:24:12.893Z,36.61
2023-11-05T10:25:12.847Z,35.64
2023-11-05T10:26:12.834Z,35.75
2023-11-05T10:27:12.831Z,36.67
2023-11-05T10:28:12.823Z,36.67
2023-11-05T10:29:12.805Z,35.69
2023-11-05T10:30:12.825Z,35.69
2023-11-05T10:31:12.783Z,36.61
2023-11-05T10:32:12.768Z,35.64
2023-11-05T10:33:12.743Z,35.64
2023-11-05T10:34:12.764Z,36.67
2023-11-05T10:35:12.721Z,35.64
2023-11-05T10:36:12.704Z,35.64
2023-11-05T10:37:12.690Z,35.69
2023-11-05T10:38:12.684Z,35.64
2023-11-05T10:39:12.668Z,35.69
2023-11-05T10:40:12.690Z,36.61
2023-11-05T10:41:12.670Z,36.61
2023-11-05T10:42:12.628Z,35.64
2023-11-05T10:43:12.621Z,36.61
2023-11-05T10:44:12.618Z,36.72
2023-11-05T10:45:12.610Z,35.69
2023-11-05T10:46:12.671Z,36.67
2023-11-05T10:47:12.575Z,36.77
2023-11-05T10:48:12.651Z,34.45
2023-11-05T10:49:12.543Z,36.61
2023-11-05T10:50:12.528Z,35.69
2023-11-05T10:51:12.532Z,35.64
2023-11-05T10:52:12.502Z,36.67
2023-11-05T10:53:12.544Z,36.67
2023-11-05T10:54:12.482Z,36.61
2023-11-05T10:55:12.458Z,36.67
2023-11-05T10:56:12.459Z,35.59
2023-11-05T10:57:12.442Z,35.75
2023-11-05T10:59:12.416Z,36.61
2023-11-05T11:00:12.399Z,36.61
2023-11-05T11:01:12.394Z,35.64
2023-11-05T11:02:12.387Z,36.61
2023-11-05T11:03:12.453Z,36.50
2023-11-05T11:04:12.472Z,36.61
2023-11-05T11:05:12.388Z,36.56
2023-11-05T11:06:12.323Z,36.61
2023-11-05T11:07:12.304Z,35.64
2023-11-05T11:08:12.307Z,35.69
2023-11-05T11:09:12.357Z,36.61
2023-11-05T11:10:12.278Z,35.64
2023-11-05T11:11:12.247Z,36.56
2023-11-05T11:12:12.239Z,35.59
2023-11-05T11:13:12.249Z,35.69
2023-11-05T11:14:12.223Z,36.61
2023-11-05T11:15:12.207Z,35.69
2023-11-05T11:16:12.192Z,35.69
2023-11-05T11:17:12.169Z,35.64
2023-11-05T11:18:12.211Z,35.69
2023-11-05T11:19:12.152Z,35.64
2023-11-05T11:20:12.146Z,34.51
2023-11-05T11:21:12.125Z,35.69
2023-11-05T11:22:12.111Z,35.64
2023-11-05T11:23:12.113Z,36.61
2023-11-05T11:24:12.084Z,36.72
2023-11-05T11:25:12.069Z,36.61
2023-11-05T11:26:12.071Z,36.50
2023-11-05T11:27:12.063Z,36.61
2023-11-05T11:28:12.042Z,36.67
2023-11-05T11:29:12.024Z,35.75
2023-11-05T11:30:12.009Z,35.64
2023-11-05T11:31:11.988Z,35.69
2023-11-05T11:32:14.474Z,36.67
2023-11-05T11:33:12.071Z,36.72
2023-11-05T11:34:11.980Z,36.67
2023-11-05T11:35:11.953Z,35.64
2023-11-05T11:36:11.940Z,35.75
2023-11-05T11:37:11.927Z,36.56
2023-11-05T11:38:11.913Z,35.75
2023-11-05T11:39:11.896Z,36.67
2023-11-05T11:40:11.889Z,35.69
2023-11-05T11:41:11.876Z,35.64
2023-11-05T11:42:11.856Z,35.64
2023-11-05T11:43:11.847Z,37.75
2023-11-05T11:44:11.847Z,36.61
2023-11-05T11:45:11.827Z,36.72
2023-11-05T11:46:11.818Z,36.72
2023-11-05T11:47:11.796Z,35.64
2023-11-05T11:48:11.812Z,35.64
2023-11-05T11:49:11.838Z,35.69
2023-11-05T11:50:11.837Z,35.80
2023-11-05T11:51:12.202Z,35.69
2023-11-05T11:52:11.738Z,36.61
2023-11-05T11:53:11.705Z,35.64
2023-11-05T11:54:11.787Z,35.69
2023-11-05T11:55:11.694Z,36.61
2023-11-05T11:56:11.682Z,36.56
2023-11-05T11:57:11.678Z,36.61
2023-11-05T11:58:11.642Z,36.61
2023-11-05T11:59:11.627Z,36.61
2023-11-05T12:00:11.631Z,36.56
2023-11-05T12:01:11.609Z,36.67
2023-11-05T12:02:11.595Z,36.67
2023-11-05T12:03:11.654Z,36.61
2023-11-05T12:04:11.624Z,36.61
2023-11-05T12:05:11.726Z,36.67
2023-11-05T12:06:11.593Z,36.61
2023-11-05T12:07:11.529Z,35.64
2023-11-05T12:08:11.529Z,36.61
2023-11-05T12:09:11.509Z,36.61
2023-11-05T12:10:11.484Z,36.61
2023-11-05T12:11:11.477Z,37.58
2023-11-05T12:12:11.474Z,36.40
2023-11-05T12:13:11.448Z,35.59
2023-11-05T12:14:12.513Z,36.67
2023-11-05T12:15:11.438Z,36.67
2023-11-05T12:16:11.407Z,35.64
2023-11-05T12:17:11.548Z,37.75
2023-11-05T12:18:11.545Z,36.67
2023-11-05T12:19:11.372Z,35.64
2023-11-05T12:20:11.368Z,36.61
2023-11-05T12:21:11.364Z,35.64
2023-11-05T12:22:11.364Z,35.69
2023-11-05T12:23:11.367Z,37.75
2023-11-05T12:24:11.319Z,36.61
2023-11-05T12:25:11.295Z,36.67
2023-11-05T12:26:11.289Z,36.72
2023-11-05T12:27:11.271Z,36.61
2023-11-05T12:28:11.268Z,36.61
2023-11-05T12:29:11.255Z,37.85
2023-11-05T12:30:11.235Z,36.61
2023-11-05T12:31:11.223Z,36.61
2023-11-05T12:32:11.233Z,37.91
2023-11-05T12:33:11.300Z,35.64
2023-11-05T12:34:11.179Z,36.61
2023-11-05T12:35:11.234Z,35.69
2023-11-05T12:36:11.164Z,36.72
2023-11-05T12:37:11.146Z,36.61
2023-11-05T12:38:11.146Z,35.64
2023-11-05T12:39:11.126Z,36.67
2023-11-05T12:40:11.109Z,37.75
2023-11-05T12:41:11.110Z,37.80
2023-11-05T12:42:11.085Z,36.61
2023-11-05T12:43:11.055Z,36.61
2023-11-05T12:44:11.051Z,35.59
2023-11-05T12:45:11.045Z,36.61
2023-11-05T12:46:11.020Z,36.61
2023-11-05T12:47:11.022Z,36.61
2023-11-05T12:48:11.148Z,36.61
2023-11-05T12:49:11.047Z,37.85
2023-11-05T12:50:10.991Z,36.72
2023-11-05T12:51:10.955Z,35.69
2023-11-05T12:52:10.945Z,36.67
2023-11-05T12:53:10.966Z,36.61